sensor_id;sensor_type;location;lat;lon;timestamp;pressure;altitude;pressure_sealevel;temperature;humidity
59104;BME280;51449;51.676;5.812;2023-02-14T00:01:25;103417.47;;;4.22;72.00
59104;BME280;51449;51.676;5.812;2023-02-14T00:03:47;103417.31;;;4.17;71.94
59104;BME280;51449;51.676;5.812;2023-02-14T00:06:13;103427.81;;;4.14;72.37
59104;BME280;51449;51.676;5.812;2023-02-14T00:08:35;103423.28;;;4.07;72.67
59104;BME280;51449;51.676;5.812;2023-02-14T00:10:57;103423.13;;;4.02;72.15
59104;BME280;51449;51.676;5.812;2023-02-14T00:13:19;103425.47;;;3.99;72.34
59104;BME280;51449;51.676;5.812;2023-02-14T00:15:40;103412.50;;;3.94;72.26
59104;BME280;51449;51.676;5.812;2023-02-14T00:18:02;103424.06;;;3.90;72.50
59104;BME280;51449;51.676;5.812;2023-02-14T00:20:26;103418.72;;;3.83;72.57
59104;BME280;51449;51.676;5.812;2023-02-14T00:22:48;103409.28;;;3.79;72.63
59104;BME280;51449;51.676;5.812;2023-02-14T00:25:11;103417.06;;;3.75;72.33
59104;BME280;51449;51.676;5.812;2023-02-14T00:27:33;103412.69;;;3.74;72.32
59104;BME280;51449;51.676;5.812;2023-02-14T00:29:55;103411.84;;;3.74;72.55
59104;BME280;51449;51.676;5.812;2023-02-14T00:32:22;103406.41;;;3.74;72.34
59104;BME280;51449;51.676;5.812;2023-02-14T00:34:47;103395.25;;;3.75;72.70
59104;BME280;51449;51.676;5.812;2023-02-14T00:37:08;103401.56;;;3.76;72.57
59104;BME280;51449;51.676;5.812;2023-02-14T00:39:30;103401.56;;;3.76;72.71
59104;BME280;51449;51.676;5.812;2023-02-14T00:41:52;103403.44;;;3.75;72.98
59104;BME280;51449;51.676;5.812;2023-02-14T00:44:13;103404.50;;;3.74;72.44
59104;BME280;51449;51.676;5.812;2023-02-14T00:46:35;103402.59;;;3.75;72.72
59104;BME280;51449;51.676;5.812;2023-02-14T00:48:57;103404.50;;;3.74;72.97
59104;BME280;51449;51.676;5.812;2023-02-14T00:51:19;103400.97;;;3.74;72.73
59104;BME280;51449;51.676;5.812;2023-02-14T00:53:44;103401.78;;;3.74;72.68
59104;BME280;51449;51.676;5.812;2023-02-14T00:56:07;103391.94;;;3.73;72.67
59104;BME280;51449;51.676;5.812;2023-02-14T00:58:29;103404.97;;;3.71;72.73
59104;BME280;51449;51.676;5.812;2023-02-14T01:00:51;103408.72;;;3.70;72.85
59104;BME280;51449;51.676;5.812;2023-02-14T01:03:13;103413.34;;;3.70;72.79
59104;BME280;51449;51.676;5.812;2023-02-14T01:05:35;103408.97;;;3.69;72.54
59104;BME280;51449;51.676;5.812;2023-02-14T01:07:57;103415.72;;;3.66;72.69
59104;BME280;51449;51.676;5.812;2023-02-14T01:10:19;103410.47;;;3.64;72.63
59104;BME280;51449;51.676;5.812;2023-02-14T01:12:40;103410.47;;;3.64;72.60
59104;BME280;51449;51.676;5.812;2023-02-14T01:15:03;103409.63;;;3.64;72.78
59104;BME280;51449;51.676;5.812;2023-02-14T01:17:24;103404.41;;;3.62;72.78
59104;BME280;51449;51.676;5.812;2023-02-14T01:19:46;103414.69;;;3.60;72.83
59104;BME280;51449;51.676;5.812;2023-02-14T01:22:08;103404.03;;;3.59;73.03
59104;BME280;51449;51.676;5.812;2023-02-14T01:24:30;103401.50;;;3.57;72.54
59104;BME280;51449;51.676;5.812;2023-02-14T01:26:54;103405.06;;;3.58;72.87
59104;BME280;51449;51.676;5.812;2023-02-14T01:29:15;103407.56;;;3.59;72.82
59104;BME280;51449;51.676;5.812;2023-02-14T01:31:37;103405.69;;;3.60;73.02
59104;BME280;51449;51.676;5.812;2023-02-14T01:33:59;103409.47;;;3.59;72.85
59104;BME280;51449;51.676;5.812;2023-02-14T01:36:29;103409.91;;;3.56;72.92
59104;BME280;51449;51.676;5.812;2023-02-14T01:38:56;103415.44;;;3.49;72.99
59104;BME280;51449;51.676;5.812;2023-02-14T01:41:20;103413.81;;;3.41;72.88
59104;BME280;51449;51.676;5.812;2023-02-14T01:43:50;103407.56;;;3.34;73.17
59104;BME280;51449;51.676;5.812;2023-02-14T01:46:14;103417.69;;;3.27;72.59
59104;BME280;51449;51.676;5.812;2023-02-14T01:48:36;103412.06;;;3.22;72.95
59104;BME280;51449;51.676;5.812;2023-02-14T01:50:57;103411.88;;;3.17;72.79
59104;BME280;51449;51.676;5.812;2023-02-14T01:53:25;103412.31;;;3.14;72.98
59104;BME280;51449;51.676;5.812;2023-02-14T01:55:57;103410.25;;;3.09;73.11
59104;BME280;51449;51.676;5.812;2023-02-14T01:58:26;103406.31;;;3.05;73.05
59104;BME280;51449;51.676;5.812;2023-02-14T02:00:52;103400.25;;;3.03;72.86
59104;BME280;51449;51.676;5.812;2023-02-14T02:03:22;103407.59;;;3.03;73.29
59104;BME280;51449;51.676;5.812;2023-02-14T02:05:51;103397.28;;;3.05;72.82
59104;BME280;51449;51.676;5.812;2023-02-14T02:08:18;103407.97;;;3.06;73.09
59104;BME280;51449;51.676;5.812;2023-02-14T02:10:40;103397.91;;;3.07;73.33
59104;BME280;51449;51.676;5.812;2023-02-14T02:13:05;103399.34;;;3.09;73.22
59104;BME280;51449;51.676;5.812;2023-02-14T02:15:31;103396.41;;;3.11;73.29
59104;BME280;51449;51.676;5.812;2023-02-14T02:18:14;103388.47;;;3.09;73.31
59104;BME280;51449;51.676;5.812;2023-02-14T02:21:22;103384.28;;;3.07;73.49
59104;BME280;51449;51.676;5.812;2023-02-14T02:24:01;103383.06;;;3.03;73.29
59104;BME280;51449;51.676;5.812;2023-02-14T02:32:51;103380.72;;;3.06;73.59
59104;BME280;51449;51.676;5.812;2023-02-14T02:35:42;103382.19;;;3.09;73.22
59104;BME280;51449;51.676;5.812;2023-02-14T02:41:12;103373.81;;;3.10;73.31
59104;BME280;51449;51.676;5.812;2023-02-14T02:46:24;103374.63;;;3.11;73.22
59104;BME280;51449;51.676;5.812;2023-02-14T02:52:59;103378.00;;;3.06;73.70
59104;BME280;51449;51.676;5.812;2023-02-14T02:55:52;103373.00;;;3.03;73.14
59104;BME280;51449;51.676;5.812;2023-02-14T03:01:27;103372.22;;;2.96;73.22
59104;BME280;51449;51.676;5.812;2023-02-14T03:03:57;103379.97;;;2.92;73.38
59104;BME280;51449;51.676;5.812;2023-02-14T03:06:43;103383.16;;;2.89;73.34
59104;BME280;51449;51.676;5.812;2023-02-14T03:11:47;103384.22;;;2.88;73.39
59104;BME280;51449;51.676;5.812;2023-02-14T03:14:19;103388.59;;;2.89;73.46
59104;BME280;51449;51.676;5.812;2023-02-14T03:20:31;103388.78;;;2.88;73.57
59104;BME280;51449;51.676;5.812;2023-02-14T03:25:45;103392.19;;;2.83;73.21
59104;BME280;51449;51.676;5.812;2023-02-14T03:28:32;103391.13;;;2.84;73.46
59104;BME280;51449;51.676;5.812;2023-02-14T03:31:35;103393.03;;;2.84;73.61
59104;BME280;51449;51.676;5.812;2023-02-14T03:34:09;103389.69;;;2.82;73.10
59104;BME280;51449;51.676;5.812;2023-02-14T03:37:24;103391.59;;;2.81;73.47
59104;BME280;51449;51.676;5.812;2023-02-14T03:39:50;103385.50;;;2.79;73.15
59104;BME280;51449;51.676;5.812;2023-02-14T03:42:31;103383.41;;;2.81;73.57
59104;BME280;51449;51.676;5.812;2023-02-14T03:44:59;103381.72;;;2.80;73.36
59104;BME280;51449;51.676;5.812;2023-02-14T03:47:28;103379.00;;;2.80;73.15
59104;BME280;51449;51.676;5.812;2023-02-14T03:50:00;103375.69;;;2.78;73.69
59104;BME280;51449;51.676;5.812;2023-02-14T03:52:28;103371.47;;;2.75;73.57
59104;BME280;51449;51.676;5.812;2023-02-14T03:54:56;103370.91;;;2.73;73.33
59104;BME280;51449;51.676;5.812;2023-02-14T03:57:24;103377.00;;;2.69;73.39
59104;BME280;51449;51.676;5.812;2023-02-14T03:59:51;103376.81;;;2.64;73.51
59104;BME280;51449;51.676;5.812;2023-02-14T04:02:40;103373.06;;;2.58;73.37
59104;BME280;51449;51.676;5.812;2023-02-14T04:05:12;103364.31;;;2.49;73.32
59104;BME280;51449;51.676;5.812;2023-02-14T04:07:49;103371.22;;;2.45;73.36
59104;BME280;51449;51.676;5.812;2023-02-14T04:10:19;103381.50;;;2.43;73.56
59104;BME280;51449;51.676;5.812;2023-02-14T04:12:42;103375.44;;;2.41;73.79
59104;BME280;51449;51.676;5.812;2023-02-14T04:15:04;103376.50;;;2.40;73.83
59104;BME280;51449;51.676;5.812;2023-02-14T04:17:26;103379.22;;;2.40;73.69
59104;BME280;51449;51.676;5.812;2023-02-14T04:20:07;103381.09;;;2.40;74.00
59104;BME280;51449;51.676;5.812;2023-02-14T04:22:29;103380.88;;;2.41;73.57
59104;BME280;51449;51.676;5.812;2023-02-14T04:24:50;103385.03;;;2.44;73.82
59104;BME280;51449;51.676;5.812;2023-02-14T04:27:12;103386.72;;;2.45;73.91
59104;BME280;51449;51.676;5.812;2023-02-14T04:29:45;103383.78;;;2.46;73.63
59104;BME280;51449;51.676;5.812;2023-02-14T04:32:15;103386.28;;;2.48;73.57
59104;BME280;51449;51.676;5.812;2023-02-14T04:34:38;103384.41;;;2.48;73.56
59104;BME280;51449;51.676;5.812;2023-02-14T04:37:00;103385.47;;;2.47;73.67
59104;BME280;51449;51.676;5.812;2023-02-14T04:39:22;103384.41;;;2.48;73.61
59104;BME280;51449;51.676;5.812;2023-02-14T04:41:43;103378.97;;;2.48;73.53
59104;BME280;51449;51.676;5.812;2023-02-14T04:44:05;103380.41;;;2.51;73.80
59104;BME280;51449;51.676;5.812;2023-02-14T04:46:26;103383.31;;;2.56;73.81
59104;BME280;51449;51.676;5.812;2023-02-14T04:48:48;103381.22;;;2.58;73.80
59104;BME280;51449;51.676;5.812;2023-02-14T04:51:10;103373.66;;;2.60;73.67
59104;BME280;51449;51.676;5.812;2023-02-14T04:53:31;103366.34;;;2.61;73.68
59104;BME280;51449;51.676;5.812;2023-02-14T04:55:53;103366.34;;;2.61;74.02
59104;BME280;51449;51.676;5.812;2023-02-14T04:58:15;103369.06;;;2.61;74.02
59104;BME280;51449;51.676;5.812;2023-02-14T05:00:37;103362.16;;;2.58;73.59
59104;BME280;51449;51.676;5.812;2023-02-14T05:02:59;103358.81;;;2.56;73.54
59104;BME280;51449;51.676;5.812;2023-02-14T05:05:21;103357.38;;;2.53;73.70
59104;BME280;51449;51.676;5.812;2023-02-14T05:07:42;103353.19;;;2.51;73.75
59104;BME280;51449;51.676;5.812;2023-02-14T05:10:08;103353.44;;;2.49;73.99
59104;BME280;51449;51.676;5.812;2023-02-14T05:12:31;103350.72;;;2.49;74.08
59104;BME280;51449;51.676;5.812;2023-02-14T05:14:52;103352.59;;;2.49;73.79
59104;BME280;51449;51.676;5.812;2023-02-14T05:17:14;103345.28;;;2.49;73.68
59104;BME280;51449;51.676;5.812;2023-02-14T05:19:36;103342.31;;;2.51;73.83
59104;BME280;51449;51.676;5.812;2023-02-14T05:21:57;103354.66;;;2.53;73.79
59104;BME280;51449;51.676;5.812;2023-02-14T05:24:19;103345.66;;;2.53;73.90
59104;BME280;51449;51.676;5.812;2023-02-14T05:26:41;103347.34;;;2.54;74.04
59104;BME280;51449;51.676;5.812;2023-02-14T05:29:03;103351.09;;;2.53;73.79
59104;BME280;51449;51.676;5.812;2023-02-14T05:31:24;103350.06;;;2.54;73.88
59104;BME280;51449;51.676;5.812;2023-02-14T05:33:46;103345.28;;;2.49;74.11
59104;BME280;51449;51.676;5.812;2023-02-14T05:36:09;103348.41;;;2.46;73.81
59104;BME280;51449;51.676;5.812;2023-02-14T05:38:31;103345.09;;;2.44;74.13
59104;BME280;51449;51.676;5.812;2023-02-14T05:40:54;103352.84;;;2.41;73.78
59104;BME280;51449;51.676;5.812;2023-02-14T05:43:15;103349.72;;;2.37;73.67
59104;BME280;51449;51.676;5.812;2023-02-14T05:45:37;103345.75;;;2.33;73.92
59104;BME280;51449;51.676;5.812;2023-02-14T05:48:00;103354.34;;;2.30;74.10
59104;BME280;51449;51.676;5.812;2023-02-14T05:50:21;103350.38;;;2.26;74.23
59104;BME280;51449;51.676;5.812;2023-02-14T05:52:47;103355.19;;;2.24;73.94
59104;BME280;51449;51.676;5.812;2023-02-14T05:55:09;103354.81;;;2.20;73.72
59104;BME280;51449;51.676;5.812;2023-02-14T05:57:31;103350.41;;;2.19;74.20
59104;BME280;51449;51.676;5.812;2023-02-14T05:59:52;103352.72;;;2.16;74.07
59104;BME280;51449;51.676;5.812;2023-02-14T06:02:14;103353.75;;;2.14;74.06
59104;BME280;51449;51.676;5.812;2023-02-14T06:04:36;103354.44;;;2.10;74.24
59104;BME280;51449;51.676;5.812;2023-02-14T06:06:58;103354.22;;;2.05;74.13
59104;BME280;51449;51.676;5.812;2023-02-14T06:09:21;103356.53;;;2.01;74.23
59104;BME280;51449;51.676;5.812;2023-02-14T06:11:43;103359.91;;;1.97;74.18
59104;BME280;51449;51.676;5.812;2023-02-14T06:14:04;103362.22;;;1.93;73.95
59104;BME280;51449;51.676;5.812;2023-02-14T06:16:26;103362.63;;;1.90;74.43
59104;BME280;51449;51.676;5.812;2023-02-14T06:18:48;103364.13;;;1.86;73.62
59104;BME280;51449;51.676;5.812;2023-02-14T06:21:09;103362.66;;;1.83;73.74
59104;BME280;51449;51.676;5.812;2023-02-14T06:23:31;103366.63;;;1.81;73.83
59104;BME280;51449;51.676;5.812;2023-02-14T06:25:53;103355.13;;;1.79;74.34
59104;BME280;51449;51.676;5.812;2023-02-14T06:28:14;103361.59;;;1.78;74.09
59104;BME280;51449;51.676;5.812;2023-02-14T06:30:36;103361.84;;;1.76;73.94
59104;BME280;51449;51.676;5.812;2023-02-14T06:32:58;103359.31;;;1.75;74.21
59104;BME280;51449;51.676;5.812;2023-02-14T06:35:20;103363.50;;;1.77;74.25
59104;BME280;51449;51.676;5.812;2023-02-14T06:37:42;103369.56;;;1.79;74.49
59104;BME280;51449;51.676;5.812;2023-02-14T06:40:06;103358.69;;;1.79;74.12
59104;BME280;51449;51.676;5.812;2023-02-14T06:42:30;103366.41;;;1.82;74.09
59104;BME280;51449;51.676;5.812;2023-02-14T06:44:51;103367.22;;;1.83;74.18
59104;BME280;51449;51.676;5.812;2023-02-14T06:47:13;103369.56;;;1.86;74.44
59104;BME280;51449;51.676;5.812;2023-02-14T06:49:35;103370.19;;;1.88;74.72
59104;BME280;51449;51.676;5.812;2023-02-14T06:51:57;103363.47;;;1.90;74.24
59104;BME280;51449;51.676;5.812;2023-02-14T06:54:19;103369.75;;;1.91;74.49
59104;BME280;51449;51.676;5.812;2023-02-14T06:56:40;103372.03;;;1.94;74.42
59104;BME280;51449;51.676;5.812;2023-02-14T06:59:02;103376.41;;;1.95;74.45
59104;BME280;51449;51.676;5.812;2023-02-14T07:01:24;103377.47;;;1.94;74.19
59104;BME280;51449;51.676;5.812;2023-02-14T07:03:45;103374.75;;;1.94;74.21
59104;BME280;51449;51.676;5.812;2023-02-14T07:06:07;103374.75;;;1.94;74.45
59104;BME280;51449;51.676;5.812;2023-02-14T07:08:29;103378.09;;;1.96;74.44
59104;BME280;51449;51.676;5.812;2023-02-14T07:10:54;103379.13;;;1.95;74.36
59104;BME280;51449;51.676;5.812;2023-02-14T07:13:20;103377.25;;;1.96;74.47
59104;BME280;51449;51.676;5.812;2023-02-14T07:15:41;103381.44;;;1.98;74.17
59104;BME280;51449;51.676;5.812;2023-02-14T07:18:03;103376.00;;;1.98;74.09
59104;BME280;51449;51.676;5.812;2023-02-14T07:20:25;103386.44;;;2.01;74.32
59104;BME280;51449;51.676;5.812;2023-02-14T07:22:46;103385.38;;;2.02;74.64
59104;BME280;51449;51.676;5.812;2023-02-14T07:25:08;103390.63;;;2.04;74.11
59104;BME280;51449;51.676;5.812;2023-02-14T07:27:31;103381.84;;;2.08;74.38
59104;BME280;51449;51.676;5.812;2023-02-14T07:29:53;103385.81;;;2.12;74.48
59104;BME280;51449;51.676;5.812;2023-02-14T07:32:15;103393.91;;;2.19;74.68
59104;BME280;51449;51.676;5.812;2023-02-14T07:34:37;103385.13;;;2.24;74.29
59104;BME280;51449;51.676;5.812;2023-02-14T07:36:59;103390.97;;;2.27;74.28
59104;BME280;51449;51.676;5.812;2023-02-14T07:39:21;103394.09;;;2.31;74.31
59104;BME280;51449;51.676;5.812;2023-02-14T07:41:43;103387.19;;;2.35;74.34
59104;BME280;51449;51.676;5.812;2023-02-14T07:44:05;103389.25;;;2.40;74.37
59104;BME280;51449;51.676;5.812;2023-02-14T07:46:26;103390.47;;;2.44;74.32
59104;BME280;51449;51.676;5.812;2023-02-14T07:48:49;103385.03;;;2.50;74.62
59104;BME280;51449;51.676;5.812;2023-02-14T07:51:12;103388.56;;;2.57;74.73
59104;BME280;51449;51.676;5.812;2023-02-14T07:53:34;103392.06;;;2.65;74.48
59104;BME280;51449;51.676;5.812;2023-02-14T07:55:56;103390.97;;;2.72;75.00
59104;BME280;51449;51.676;5.812;2023-02-14T07:58:18;103389.69;;;2.82;74.91
59104;BME280;51449;51.676;5.812;2023-02-14T08:00:40;103388.38;;;2.91;74.69
59104;BME280;51449;51.676;5.812;2023-02-14T08:03:02;103392.28;;;3.02;74.75
59104;BME280;51449;51.676;5.812;2023-02-14T08:05:24;103395.16;;;3.13;75.15
59104;BME280;51449;51.676;5.812;2023-02-14T08:07:46;103390.19;;;3.29;75.28
59104;BME280;51449;51.676;5.812;2023-02-14T08:10:08;103385.09;;;3.39;75.04
59104;BME280;51449;51.676;5.812;2023-02-14T08:12:33;103383.56;;;3.50;74.64
59104;BME280;51449;51.676;5.812;2023-02-14T08:15:13;103381.16;;;3.60;75.05
59104;BME280;51449;51.676;5.812;2023-02-14T08:17:55;103374.97;;;3.71;75.71
59104;BME280;51449;51.676;5.812;2023-02-14T08:20:17;103377.81;;;3.83;75.61
59104;BME280;51449;51.676;5.812;2023-02-14T08:22:39;103379.53;;;3.96;75.66
59104;BME280;51449;51.676;5.812;2023-02-14T08:25:00;103372.50;;;4.06;75.69
59104;BME280;51449;51.676;5.812;2023-02-14T08:27:22;103374.03;;;4.21;76.07
59104;BME280;51449;51.676;5.812;2023-02-14T08:29:44;103363.38;;;4.31;75.45
59104;BME280;51449;51.676;5.812;2023-02-14T08:32:05;103372.72;;;4.42;75.64
59104;BME280;51449;51.676;5.812;2023-02-14T08:34:27;103373.47;;;4.49;75.95
59104;BME280;51449;51.676;5.812;2023-02-14T08:36:49;103370.41;;;4.57;75.93
59104;BME280;51449;51.676;5.812;2023-02-14T08:39:12;103372.81;;;4.65;76.41
59104;BME280;51449;51.676;5.812;2023-02-14T08:41:34;103370.59;;;4.74;76.39
59104;BME280;51449;51.676;5.812;2023-02-14T08:43:58;103362.69;;;4.84;76.34
59104;BME280;51449;51.676;5.812;2023-02-14T08:46:20;103362.34;;;4.92;76.56
59104;BME280;51449;51.676;5.812;2023-02-14T08:48:42;103361.78;;;5.02;76.30
59104;BME280;51449;51.676;5.812;2023-02-14T08:51:10;103362.06;;;5.12;76.34
59104;BME280;51449;51.676;5.812;2023-02-14T08:53:33;103380.38;;;5.24;76.95
59104;BME280;51449;51.676;5.812;2023-02-14T08:55:55;103368.84;;;5.33;76.65
59104;BME280;51449;51.676;5.812;2023-02-14T08:58:17;103363.63;;;5.44;76.83
59104;BME280;51449;51.676;5.812;2023-02-14T09:00:38;103369.97;;;5.56;76.71
59104;BME280;51449;51.676;5.812;2023-02-14T09:03:00;103365.56;;;5.67;76.74
59104;BME280;51449;51.676;5.812;2023-02-14T09:05:22;103367.94;;;5.75;77.02
59104;BME280;51449;51.676;5.812;2023-02-14T09:07:44;103364.38;;;5.86;76.70
59104;BME280;51449;51.676;5.812;2023-02-14T09:10:06;103353.69;;;5.96;76.35
59104;BME280;51449;51.676;5.812;2023-02-14T09:12:29;103355.81;;;6.06;76.18
59104;BME280;51449;51.676;5.812;2023-02-14T09:14:51;103356.88;;;6.17;76.25
59104;BME280;51449;51.676;5.812;2023-02-14T09:17:13;103353.25;;;6.28;76.22
59104;BME280;51449;51.676;5.812;2023-02-14T09:19:36;103356.19;;;6.38;75.91
59104;BME280;51449;51.676;5.812;2023-02-14T09:21:58;103355.34;;;6.50;76.21
59104;BME280;51449;51.676;5.812;2023-02-14T09:24:20;103349.81;;;6.61;75.97
59104;BME280;51449;51.676;5.812;2023-02-14T09:26:42;103353.56;;;6.72;75.94
59104;BME280;51449;51.676;5.812;2023-02-14T09:29:04;103351.59;;;6.84;76.09
59104;BME280;51449;51.676;5.812;2023-02-14T09:31:25;103353.47;;;6.96;75.76
59104;BME280;51449;51.676;5.812;2023-02-14T09:33:48;103345.41;;;7.06;76.28
59104;BME280;51449;51.676;5.812;2023-02-14T09:36:11;103344.25;;;7.19;75.45
59104;BME280;51449;51.676;5.812;2023-02-14T09:38:35;103336.44;;;7.27;75.29
59104;BME280;51449;51.676;5.812;2023-02-14T09:40:57;103346.25;;;7.40;75.42
59104;BME280;51449;51.676;5.812;2023-02-14T09:43:49;103342.09;;;7.55;75.55
59104;BME280;51449;51.676;5.812;2023-02-14T09:46:17;103348.81;;;7.64;75.46
59104;BME280;51449;51.676;5.812;2023-02-14T09:48:43;103352.00;;;7.78;75.17
59104;BME280;51449;51.676;5.812;2023-02-14T09:51:13;103348.34;;;7.89;75.07
59104;BME280;51449;51.676;5.812;2023-02-14T09:53:43;103339.47;;;8.04;74.57
59104;BME280;51449;51.676;5.812;2023-02-14T09:59:34;103339.53;;;8.31;74.47
59104;BME280;51449;51.676;5.812;2023-02-14T10:02:37;103326.03;;;8.46;73.99
59104;BME280;51449;51.676;5.812;2023-02-14T10:10:47;103318.66;;;8.79;73.33
59104;BME280;51449;51.676;5.812;2023-02-14T10:13:26;103318.22;;;8.92;73.50
59104;BME280;51449;51.676;5.812;2023-02-14T10:16:06;103317.81;;;9.06;72.88
59104;BME280;51449;51.676;5.812;2023-02-14T10:19:01;103315.44;;;9.19;72.71
59104;BME280;51449;51.676;5.812;2023-02-14T10:21:30;103318.53;;;9.28;72.35
59104;BME280;51449;51.676;5.812;2023-02-14T10:24:10;103310.34;;;9.38;71.88
59104;BME280;51449;51.676;5.812;2023-02-14T10:26:39;103315.63;;;9.45;71.66
59104;BME280;51449;51.676;5.812;2023-02-14T10:29:02;103314.88;;;9.55;71.89
59104;BME280;51449;51.676;5.812;2023-02-14T10:31:43;103320.41;;;9.65;71.71
59104;BME280;51449;51.676;5.812;2023-02-14T10:34:42;103323.53;;;9.79;71.29
59104;BME280;51449;51.676;5.812;2023-02-14T10:43:25;103324.81;;;10.14;70.55
59104;BME280;51449;51.676;5.812;2023-02-14T10:51:43;103315.56;;;10.35;68.92
59104;BME280;51449;51.676;5.812;2023-02-14T10:54:19;103306.22;;;10.46;69.41
59104;BME280;51449;51.676;5.812;2023-02-14T10:56:49;103302.66;;;10.56;69.07
59104;BME280;51449;51.676;5.812;2023-02-14T10:59:24;103297.72;;;10.63;68.31
59104;BME280;51449;51.676;5.812;2023-02-14T11:01:57;103303.78;;;10.70;68.12
59104;BME280;51449;51.676;5.812;2023-02-14T11:04:23;103297.72;;;10.79;68.38
59104;BME280;51449;51.676;5.812;2023-02-14T11:06:45;103294.69;;;10.85;67.86
59104;BME280;51449;51.676;5.812;2023-02-14T11:09:09;103293.31;;;10.93;67.87
59104;BME280;51449;51.676;5.812;2023-02-14T11:11:37;103295.25;;;11.03;68.06
59104;BME280;51449;51.676;5.812;2023-02-14T11:14:26;103277.88;;;11.12;67.78
59104;BME280;51449;51.676;5.812;2023-02-14T11:16:52;103285.03;;;11.19;67.67
59104;BME280;51449;51.676;5.812;2023-02-14T11:19:33;103275.34;;;11.26;67.41
59104;BME280;51449;51.676;5.812;2023-02-14T11:21:58;103278.94;;;11.32;67.23
59104;BME280;51449;51.676;5.812;2023-02-14T11:26:57;103268.97;;;11.51;67.00
59104;BME280;51449;51.676;5.812;2023-02-14T11:29:35;103269.50;;;11.59;67.01
59104;BME280;51449;51.676;5.812;2023-02-14T11:32:19;103264.75;;;11.69;67.12
59104;BME280;51449;51.676;5.812;2023-02-14T11:34:46;103265.03;;;11.73;66.35
59104;BME280;51449;51.676;5.812;2023-02-14T11:37:26;103266.41;;;11.81;66.31
59104;BME280;51449;51.676;5.812;2023-02-14T11:39:53;103252.56;;;11.86;65.71
59104;BME280;51449;51.676;5.812;2023-02-14T11:44:57;103250.03;;;11.94;65.67
59104;BME280;51449;51.676;5.812;2023-02-14T11:47:28;103248.34;;;12.04;65.88
59104;BME280;51449;51.676;5.812;2023-02-14T11:50:00;103248.03;;;12.10;65.78
59104;BME280;51449;51.676;5.812;2023-02-14T11:52:37;103245.50;;;12.19;65.54
59104;BME280;51449;51.676;5.812;2023-02-14T11:55:26;103228.59;;;12.26;65.27
59104;BME280;51449;51.676;5.812;2023-02-14T11:57:50;103225.25;;;12.29;64.81
59104;BME280;51449;51.676;5.812;2023-02-14T12:00:18;103231.03;;;12.37;64.86
59104;BME280;51449;51.676;5.812;2023-02-14T12:02:49;103222.69;;;12.42;64.63
59104;BME280;51449;51.676;5.812;2023-02-14T12:05:45;103216.03;;;12.49;64.35
59104;BME280;51449;51.676;5.812;2023-02-14T12:08:10;103218.47;;;12.50;63.75
59104;BME280;51449;51.676;5.812;2023-02-14T12:10:37;103212.38;;;12.53;63.51
59104;BME280;51449;51.676;5.812;2023-02-14T12:13:23;103205.69;;;12.59;63.55
59104;BME280;51449;51.676;5.812;2023-02-14T12:18:21;103201.47;;;12.67;63.25
59104;BME280;51449;51.676;5.812;2023-02-14T12:23:42;103189.81;;;12.75;62.74
59104;BME280;51449;51.676;5.812;2023-02-14T12:26:38;103181.16;;;12.82;62.89
59104;BME280;51449;51.676;5.812;2023-02-14T12:31:33;103175.22;;;12.94;62.54
59104;BME280;51449;51.676;5.812;2023-02-14T12:33:55;103174.06;;;13.00;62.33
59104;BME280;51449;51.676;5.812;2023-02-14T12:42:52;103164.25;;;13.13;61.67
59104;BME280;51449;51.676;5.812;2023-02-14T12:54:31;103150.50;;;13.32;61.02
59104;BME280;51449;51.676;5.812;2023-02-14T12:57:39;103149.84;;;13.40;61.43
59104;BME280;51449;51.676;5.812;2023-02-14T13:00:27;103145.03;;;13.45;61.06
59104;BME280;51449;51.676;5.812;2023-02-14T13:03:29;103139.50;;;13.45;59.83
59104;BME280;51449;51.676;5.812;2023-02-14T13:06:28;103130.09;;;13.46;59.37
59104;BME280;51449;51.676;5.812;2023-02-14T13:11:48;103131.44;;;13.49;59.71
59104;BME280;51449;51.676;5.812;2023-02-14T13:17:20;103130.31;;;13.50;59.06
59104;BME280;51449;51.676;5.812;2023-02-14T13:22:28;103120.81;;;13.56;59.17
59104;BME280;51449;51.676;5.812;2023-02-14T13:25:00;103119.41;;;13.59;58.79
59104;BME280;51449;51.676;5.812;2023-02-14T13:27:32;103117.66;;;13.63;59.25
59104;BME280;51449;51.676;5.812;2023-02-14T13:30:00;103106.22;;;13.69;59.13
59104;BME280;51449;51.676;5.812;2023-02-14T13:32:34;103108.91;;;13.75;59.07
59104;BME280;51449;51.676;5.812;2023-02-14T13:35:01;103106.66;;;13.77;58.75
59104;BME280;51449;51.676;5.812;2023-02-14T13:37:25;103097.47;;;13.81;58.84
59104;BME280;51449;51.676;5.812;2023-02-14T13:39:57;103090.50;;;13.84;58.30
59104;BME280;51449;51.676;5.812;2023-02-14T13:50:49;103089.88;;;13.87;57.82
59104;BME280;51449;51.676;5.812;2023-02-14T13:53:12;103081.50;;;13.92;57.85
59104;BME280;51449;51.676;5.812;2023-02-14T13:55:50;103082.25;;;13.98;58.15
59104;BME280;51449;51.676;5.812;2023-02-14T13:58:18;103080.50;;;14.02;57.78
59104;BME280;51449;51.676;5.812;2023-02-14T14:00:46;103079.06;;;14.04;57.40
59104;BME280;51449;51.676;5.812;2023-02-14T14:06:08;103070.03;;;13.99;56.73
59104;BME280;51449;51.676;5.812;2023-02-14T14:08:37;103065.63;;;13.98;56.26
59104;BME280;51449;51.676;5.812;2023-02-14T14:11:10;103072.28;;;13.97;56.20
59104;BME280;51449;51.676;5.812;2023-02-14T14:18:44;103060.81;;;14.03;56.53
59104;BME280;51449;51.676;5.812;2023-02-14T14:21:14;103058.56;;;14.05;56.38
59104;BME280;51449;51.676;5.812;2023-02-14T14:23:43;103060.53;;;14.05;56.50
59104;BME280;51449;51.676;5.812;2023-02-14T14:26:34;103059.09;;;14.07;56.27
59104;BME280;51449;51.676;5.812;2023-02-14T14:28:59;103055.25;;;14.03;55.70
59104;BME280;51449;51.676;5.812;2023-02-14T14:31:22;103051.34;;;14.04;55.83
59104;BME280;51449;51.676;5.812;2023-02-14T14:33:44;103050.53;;;14.04;56.13
59104;BME280;51449;51.676;5.812;2023-02-14T14:36:08;103050.25;;;14.05;56.17
59104;BME280;51449;51.676;5.812;2023-02-14T14:38:47;103044.09;;;14.08;56.09
59104;BME280;51449;51.676;5.812;2023-02-14T14:41:11;103039.69;;;14.07;56.09